Lindale, Texas
Current Conditions -  °F | °C
As of 3:53 PM on Friday 24 Oct 2014 (Local Time) from KTYR Reporting Station
Clear Clear  
Wind Chill: 80°   Ceiling: Unl
Heat Index: 81°   Visibility: 10mi
Dew Point: 58°   Wind: 3mph
Humidity: 47%   Direction: 160°SSE
Pressure: 30.1"   Gusts: NA
Location:  32.52°N, 95.41°W
Report Text: KTYR 242053Z 16003KT 10SM CLR 27/14 A3010 RMK AO2 SLP188 T02670144 56020
Loading
Personal Weather Stations






























Interactive Weather Map
Tropical Storm Tracking
New forecast layout! Learn more

10-Day Weather Forecast

Advertisements
Track Severe Weather on mobile